Owensboro-Daviess County Regional Airport

Airport
ICAO code: 
KOWB
Summary
ICAO Region: 
NAM
Territory: 
Location: 
Owensboro, Kentucky,
Coordinates: 
Aerial View: 
37° 44' 21.683" N, 87° 10' 2.351" W
Airport WX: 
Cumulonimbus
Metar
Observation
KOWB 020835Z AUTO 21006KT 1/4SM FG CLR 07/07 A2997 RMK AO2
Station
Owensboro, Owensboro-Daviess County Airport
Date/Time
2021-12-02 08:35:00
Wind direction
210°
Wind speed
06 kts
Lowest cloud amount
n/a
Temperature
7°C
Dew point
7°C
Humidity
100%
Weather condition
fog

Description

Owensboro-Daviess County Airport is a public use airport located 6 km southwest of the central business district of Owensboro, a city in Daviess County, Kentucky.

Climatology

Humid “subtropical” climate (Köppen climate classification Cfa) - characterized by hot, humid summers and cool winters. Significant amounts of precipitation occur in all seasons in most areas. Winter rainfall (and sometimes snowfall) is associated with large storms that the westerlies steer from west to east. Most summer rainfall occurs during thunderstorms.

Runways

Designator Length Width Surface Rops
5/23 1524 30 ASP Yes/Yes
18/36 1979 46 ASP Yes/Yes
Airport map: 
Aerial View: 

SKYbrary Partners:

Safety knowledge contributed by: